Time;durP1;ratioP1;P1;durP2;ratioP2;P2;SDS_P1;SDS_P2;PMS_P1;PMS_P2;Temp;Humidity;BMP_temperature;BMP_pressure;BME280_temperature;BME280_humidity;BME280_pressure;Samples;Min_cycle;Max_cycle;Signal;HPM_P1;HPM_P2
2022/04/11 00:01:21;;;;;;;23.23;12.35;;;;;;;1.96;100.00;99879.88;5071901;28;20063;-78
2022/04/11 00:03:47;;;;;;;16.33;8.07;;;;;;;2.00;100.00;99886.69;5053647;28;20032;-78
2022/04/11 00:06:13;;;;;;;12.68;6.80;;;;;;;1.97;100.00;99884.13;5071719;28;20033;-78
2022/04/11 00:08:38;;;;;;;9.85;6.13;;;;;;;1.97;100.00;99890.13;5053915;28;20070;-78
2022/04/11 00:11:04;;;;;;;12.63;6.78;;;;;;;1.86;100.00;99873.09;5071673;28;20029;-78
2022/04/11 00:13:29;;;;;;;17.40;6.38;;;;;;;1.81;100.00;99883.38;5053754;28;20483;-78
2022/04/11 00:15:55;;;;;;;10.38;5.50;;;;;;;1.75;100.00;99876.59;5071738;28;20040;-78
2022/04/11 00:18:20;;;;;;;11.45;6.25;;;;;;;1.79;100.00;99900.53;5071644;28;20028;-78
2022/04/11 00:20:47;;;;;;;14.85;7.07;;;;;;;1.62;100.00;99862.13;5071381;28;20032;-78
2022/04/11 00:23:13;;;;;;;22.15;11.65;;;;;;;1.67;100.00;99880.06;5053755;28;20055;-78
2022/04/11 00:25:38;;;;;;;17.45;9.73;;;;;;;1.63;100.00;99879.25;5053716;28;20033;-79
2022/04/11 00:28:04;;;;;;;14.13;7.22;;;;;;;1.50;100.00;99857.94;5071348;28;20601;-79
2022/04/11 00:30:29;;;;;;;15.50;8.35;;;;;;;1.59;100.00;99884.41;5071506;28;20024;-79
2022/04/11 00:32:55;;;;;;;8.68;5.10;;;;;;;1.59;100.00;99889.53;5071398;28;20021;-79
2022/04/11 00:35:21;;;;;;;9.70;4.68;;;;;;;1.45;100.00;99877.66;5071406;28;20035;-79
2022/04/11 00:37:46;;;;;;;14.63;8.25;;;;;;;1.42;100.00;99876.81;5071451;28;20028;-79
2022/04/11 00:40:12;;;;;;;20.58;11.75;;;;;;;1.50;100.00;99887.88;5072992;28;20032;-78
2022/04/11 00:42:38;;;;;;;12.63;7.82;;;;;;;1.49;100.00;99892.16;5075630;28;20020;-79
2022/04/11 00:45:03;;;;;;;9.30;5.95;;;;;;;1.38;100.00;99870.84;5075303;28;20032;-78
2022/04/11 00:47:30;;;;;;;8.38;5.10;;;;;;;1.48;100.00;99885.34;5075526;28;20016;-78
2022/04/11 00:50:02;;;;;;;14.05;7.97;;;;;;;1.45;100.00;99902.47;5075091;28;20024;-78
2022/04/11 00:52:31;;;;;;;13.68;8.68;;;;;;;1.33;100.00;99887.97;5057240;28;20135;-78
2022/04/11 00:54:58;;;;;;;12.30;6.13;;;;;;;1.38;100.00;99895.66;5057176;28;20044;-78
2022/04/11 00:57:24;;;;;;;10.25;6.65;;;;;;;1.31;100.00;99894.00;5075363;28;20024;-78
2022/04/11 00:59:50;;;;;;;10.20;6.10;;;;;;;1.21;100.00;99891.44;5074972;28;20034;-78
2022/04/11 01:02:16;;;;;;;11.88;7.15;;;;;;;1.17;100.00;99883.78;5075140;28;20028;-78
2022/04/11 01:04:41;;;;;;;11.20;7.80;;;;;;;1.16;100.00;99890.63;5075126;28;20073;-78
2022/04/11 01:07:08;;;;;;;10.15;6.97;;;;;;;1.20;100.00;99897.44;5074945;28;20112;-78
2022/04/11 01:09:34;;;;;;;14.90;8.20;;;;;;;1.14;100.00;99897.50;5057016;28;20028;-78
2022/04/11 01:12:02;;;;;;;16.92;11.68;;;;;;;1.15;100.00;99896.63;5056837;28;20035;-78
2022/04/11 01:14:27;;;;;;;11.00;7.20;;;;;;;1.18;100.00;99908.56;5074860;28;20032;-79
2022/04/11 01:16:53;;;;;;;7.45;5.50;;;;;;;1.15;100.00;99906.88;5074659;28;20033;-79
2022/04/11 01:19:19;;;;;;;7.30;4.70;;;;;;;1.08;100.00;99899.22;5075005;28;20064;-79
2022/04/11 01:21:46;;;;;;;7.68;4.38;;;;;;;1.12;100.00;99913.75;5074746;28;20376;-78
2022/04/11 01:24:11;;;;;;;6.13;3.80;;;;;;;1.10;100.00;99906.06;5075071;28;20128;-79
2022/04/11 01:26:37;;;;;;;4.55;3.50;;;;;;;1.14;100.00;99909.47;5074738;28;20488;-78
2022/04/11 01:29:04;;;;;;;6.10;4.07;;;;;;;1.12;100.00;99914.59;5074444;28;20024;-79
2022/04/11 01:31:32;;;;;;;4.88;3.83;;;;;;;1.10;100.00;99912.91;5056760;28;20033;-79
2022/04/11 01:33:58;;;;;;;5.07;3.78;;;;;;;1.04;100.00;99906.06;5074182;28;20380;-79
2022/04/11 01:36:24;;;;;;;6.28;4.20;;;;;;;1.07;100.00;99911.19;5031871;28;20037;-79
2022/04/11 01:38:50;;;;;;;4.90;3.95;;;;;;;0.99;100.00;99900.97;5031942;28;20033;-79
2022/04/11 01:41:15;;;;;;;9.02;4.35;;;;;;;1.08;100.00;99918.03;5032414;28;20041;-79
2022/04/11 01:43:40;;;;;;;7.50;3.85;;;;;;;1.01;100.00;99913.75;5032194;28;20114;-79
2022/04/11 01:46:06;;;;;;;6.90;3.92;;;;;;;1.00;100.00;99924.88;5031701;28;20128;-79
2022/04/11 01:48:31;;;;;;;6.80;3.70;;;;;;;1.01;100.00;99921.47;5032182;28;20029;-79
2022/04/11 01:50:56;;;;;;;7.57;4.82;;;;;;;0.99;100.00;99924.03;5011682;28;20050;-79
2022/04/11 01:53:22;;;;;;;5.90;4.00;;;;;;;1.03;100.00;99924.88;5011686;28;20504;-79
2022/04/11 01:55:48;;;;;;;7.47;4.00;;;;;;;0.99;100.00;99915.50;5011855;28;20101;-79
2022/04/11 01:58:15;;;;;;;5.78;3.90;;;;;;;1.09;100.00;99929.13;4995517;28;20038;-79
2022/04/11 02:00:40;;;;;;;8.93;4.15;;;;;;;1.08;100.00;99940.25;5011917;28;20038;-79
2022/04/11 02:03:07;;;;;;;6.60;4.03;;;;;;;1.01;100.00;99929.16;5011597;28;20056;-79
2022/04/11 02:05:33;;;;;;;5.25;4.50;;;;;;;1.05;100.00;99925.72;5011842;28;20041;-79
2022/04/11 02:08:00;;;;;;;6.78;4.82;;;;;;;1.09;100.00;99931.69;5041102;28;20115;-79
2022/04/11 02:10:25;;;;;;;6.50;4.00;;;;;;;1.02;100.00;99923.19;5051463;28;20080;-79
2022/04/11 02:12:52;;;;;;;8.55;4.43;;;;;;;1.08;100.00;99932.56;5051252;28;20148;-78
2022/04/11 02:15:17;;;;;;;7.43;5.63;;;;;;;1.06;100.00;99927.44;5051333;28;20705;-79
2022/04/11 02:17:44;;;;;;;6.22;4.45;;;;;;;1.08;100.00;99925.72;5051248;28;20073;-79
2022/04/11 02:20:11;;;;;;;8.60;4.68;;;;;;;1.07;100.00;99936.84;5034401;28;20094;-79
2022/04/11 02:22:55;;;;;;;6.63;4.85;;;;;;;1.09;100.00;99932.53;5068757;28;20040;-78
2022/04/11 02:25:22;;;;;;;6.45;4.10;;;;;;;0.97;100.00;99904.41;5073787;28;20024;-78
2022/04/11 02:27:48;;;;;;;5.43;4.22;;;;;;;1.10;100.00;99925.72;5073581;28;20040;-78
2022/04/11 02:30:15;;;;;;;7.25;4.20;;;;;;;1.04;100.00;99925.75;5073480;28;20024;-78
2022/04/11 02:32:41;;;;;;;6.32;4.43;;;;;;;1.06;100.00;99921.47;5073651;28;20060;-78
2022/04/11 02:35:07;;;;;;;6.25;4.35;;;;;;;1.05;100.00;99930.84;5030567;28;20135;-78
2022/04/11 02:37:33;;;;;;;6.78;4.90;;;;;;;1.02;100.00;99930.03;5030991;28;20041;-78
2022/04/11 02:39:59;;;;;;;6.82;4.45;;;;;;;0.94;100.00;99925.78;5030817;28;20060;-78
2022/04/11 02:42:27;;;;;;;6.65;4.40;;;;;;;0.96;100.00;99936.88;5030909;28;20030;-78
2022/04/11 02:44:53;;;;;;;11.75;6.30;;;;;;;0.80;100.00;99913.84;5030661;28;20183;-78
2022/04/11 02:47:19;;;;;;;19.02;9.60;;;;;;;0.81;100.00;99921.53;5014182;28;20120;-78
2022/04/11 02:49:45;;;;;;;19.38;10.27;;;;;;;0.77;100.00;99913.88;5014182;28;20049;-79
2022/04/11 02:52:11;;;;;;;13.25;7.97;;;;;;;0.81;100.00;99926.66;5030362;28;20060;-79
2022/04/11 02:54:37;;;;;;;16.70;9.05;;;;;;;0.78;100.00;99925.81;5013876;28;20385;-79
2022/04/11 02:57:03;;;;;;;12.50;6.57;;;;;;;0.75;100.00;99935.22;5030340;28;20107;-78
2022/04/11 02:59:28;;;;;;;11.20;6.43;;;;;;;0.69;100.00;99927.53;5013995;28;20468;-78
2022/04/11 03:01:55;;;;;;;8.45;4.63;;;;;;;0.77;100.00;99934.38;5030323;28;20120;-78
2022/04/11 03:04:20;;;;;;;6.85;4.85;;;;;;;0.80;100.00;99936.91;5030055;28;20544;-79
2022/04/11 03:06:46;;;;;;;7.05;5.07;;;;;;;0.86;100.00;99937.75;5045365;28;20036;-79
2022/04/11 03:09:11;;;;;;;7.15;4.63;;;;;;;0.93;100.00;99946.31;5072335;28;20078;-79
2022/04/11 03:11:37;;;;;;;9.35;5.38;;;;;;;0.95;100.00;99945.44;5054547;28;20033;-79
2022/04/11 03:14:03;;;;;;;9.23;4.85;;;;;;;0.89;100.00;99921.53;5072289;28;20021;-79
2022/04/11 03:16:28;;;;;;;10.27;5.53;;;;;;;0.99;100.00;99930.88;5072953;28;20040;-79
2022/04/11 03:18:53;;;;;;;6.85;5.07;;;;;;;1.09;100.00;99936.81;5054279;28;20058;-78
2022/04/11 03:21:19;;;;;;;9.02;5.97;;;;;;;1.12;100.00;99934.25;5072462;28;20033;-78
2022/04/11 03:23:44;;;;;;;11.30;6.50;;;;;;;1.18;100.00;99940.22;5054482;28;20028;-79
2022/04/11 03:26:10;;;;;;;11.15;6.07;;;;;;;1.27;100.00;99928.22;5072032;28;20060;-78
2022/04/11 03:28:35;;;;;;;10.63;6.72;;;;;;;1.27;100.00;99941.91;5072582;28;20032;-78
2022/04/11 03:31:01;;;;;;;11.13;6.30;;;;;;;1.33;100.00;99935.88;5072322;28;20036;-78
2022/04/11 03:33:26;;;;;;;8.93;6.22;;;;;;;1.30;100.00;99923.06;5072466;28;20369;-78
2022/04/11 03:35:52;;;;;;;9.13;6.32;;;;;;;1.35;100.00;99942.72;5072309;28;20035;-78
2022/04/11 03:38:18;;;;;;;9.13;7.07;;;;;;;1.37;100.00;99947.84;5072051;28;20139;-78
2022/04/11 03:40:43;;;;;;;7.20;6.10;;;;;;;1.31;100.00;99937.63;5072042;28;20038;-78
2022/04/11 03:43:09;;;;;;;9.75;6.82;;;;;;;1.32;100.00;99953.00;5072027;28;20599;-78
2022/04/11 03:45:34;;;;;;;8.48;6.40;;;;;;;1.22;100.00;99933.34;5072228;28;20024;-78
2022/04/11 03:48:00;;;;;;;10.10;6.70;;;;;;;1.20;100.00;99943.63;5071775;28;20048;-79
2022/04/11 03:50:25;;;;;;;10.40;6.43;;;;;;;1.23;100.00;99956.47;5072089;28;20090;-78
2022/04/11 03:52:51;;;;;;;9.55;6.85;;;;;;;1.21;100.00;99955.59;5072277;28;20071;-78
2022/04/11 03:55:16;;;;;;;14.07;6.45;;;;;;;1.23;100.00;99948.75;5071587;28;20412;-78
2022/04/11 03:57:42;;;;;;;7.78;6.47;;;;;;;1.24;100.00;99962.44;5071873;28;20028;-78
2022/04/11 04:00:08;;;;;;;12.30;6.78;;;;;;;1.19;100.00;99959.03;5071832;28;20082;-78
2022/04/11 04:02:34;;;;;;;9.57;5.63;;;;;;;1.19;100.00;99954.75;5053930;28;20025;-78
2022/04/11 04:04:59;;;;;;;11.30;7.05;;;;;;;1.13;100.00;99949.63;5053609;28;20036;-78
2022/04/11 04:07:25;;;;;;;10.02;6.60;;;;;;;1.20;100.00;99958.19;5071713;28;20020;-78
2022/04/11 04:09:51;;;;;;;10.80;6.88;;;;;;;1.20;100.00;99955.63;5071754;28;20033;-78
2022/04/11 04:12:20;;;;;;;8.90;6.57;;;;;;;1.24;100.00;99970.13;5053472;28;20020;-79
2022/04/11 04:14:49;;;;;;;9.93;7.03;;;;;;;1.18;100.00;99960.75;5052957;28;20078;-79
2022/04/11 04:17:15;;;;;;;9.68;6.90;;;;;;;1.28;100.00;99971.84;5053468;28;20383;-79
2022/04/11 04:19:41;;;;;;;9.77;6.75;;;;;;;1.29;100.00;99977.81;5053650;28;20028;-79
2022/04/11 04:22:07;;;;;;;11.30;7.30;;;;;;;1.29;100.00;99977.81;5053431;28;20048;-79
2022/04/11 04:24:34;;;;;;;9.25;6.57;;;;;;;1.36;100.00;99987.22;5071551;28;20025;-79
2022/04/11 04:27:01;;;;;;;9.75;7.03;;;;;;;1.33;100.00;99979.50;5071866;28;20025;-79
2022/04/11 04:29:27;;;;;;;9.52;6.80;;;;;;;1.39;100.00;99976.91;5071949;28;20107;-78
2022/04/11 04:31:52;;;;;;;9.77;6.82;;;;;;;1.40;100.00;99974.34;5071481;28;20520;-78
2022/04/11 04:34:18;;;;;;;12.70;7.07;;;;;;;1.60;100.00;99993.94;5071467;28;20068;-78
2022/04/11 04:36:43;;;;;;;10.57;6.88;;;;;;;1.58;100.00;99975.97;5071511;28;20033;-79
2022/04/11 04:39:08;;;;;;;11.13;7.47;;;;;;;1.70;100.00;99993.03;5053042;28;20072;-79
2022/04/11 04:41:34;;;;;;;11.70;8.07;;;;;;;1.74;100.00;99989.59;5053595;28;20361;-79
2022/04/11 04:43:59;;;;;;;11.73;7.45;;;;;;;1.85;100.00;100003.22;5071313;28;20032;-79
2022/04/11 04:46:25;;;;;;;12.38;7.45;;;;;;;1.87;100.00;99990.38;5071484;28;20426;-79
2022/04/11 04:48:50;;;;;;;10.07;6.68;;;;;;;2.00;100.00;99995.41;5071729;28;20033;-79
2022/04/11 04:51:18;;;;;;;11.48;8.10;;;;;;;2.06;100.00;99999.66;5071225;28;20099;-79
2022/04/11 04:53:44;;;;;;;8.70;6.85;;;;;;;2.14;100.00;99995.31;5071115;28;20048;-79
2022/04/11 04:56:09;;;;;;;11.50;7.00;;;;;;;2.22;100.00;99998.69;5071599;28;20020;-79
2022/04/11 04:58:34;;;;;;;8.82;6.82;;;;;;;2.22;100.00;99987.56;5071709;28;20103;-79
2022/04/11 05:01:00;;;;;;;13.27;6.95;;;;;;;2.33;100.00;99985.78;5070983;28;20372;-79
2022/04/11 05:03:26;;;;;;;14.02;6.50;;;;;;;2.46;100.00;99986.53;5071345;28;20025;-79
2022/04/11 05:05:51;;;;;;;9.07;6.47;;;;;;;2.68;100.00;100005.19;5053221;28;20476;-79
2022/04/11 05:08:17;;;;;;;10.00;6.53;;;;;;;2.72;100.00;99997.44;5070798;28;20029;-79
2022/04/11 05:10:42;;;;;;;7.38;5.88;;;;;;;2.83;100.00;100004.22;5071298;28;20051;-79
2022/04/11 05:13:08;;;;;;;12.75;6.90;;;;;;;2.89;100.00;99996.44;5071034;28;20529;-79
2022/04/11 05:15:33;;;;;;;13.07;6.93;;;;;;;3.09;100.00;100017.66;5071005;28;20029;-79
2022/04/11 05:17:58;;;;;;;11.43;7.22;;;;;;;3.15;100.00;100009.03;5071163;28;20456;-79
2022/04/11 05:20:24;;;;;;;9.18;6.00;;;;;;;3.16;100.00;100000.41;5052885;28;20055;-79
2022/04/11 05:22:49;;;;;;;10.63;6.55;;;;;;;3.27;100.00;100003.75;5053047;28;20032;-79
2022/04/11 05:25:15;;;;;;;11.00;6.75;;;;;;;3.45;100.00;100016.38;5071048;28;20511;-80
2022/04/11 05:27:40;;;;;;;13.82;6.63;;;;;;;3.50;100.00;100003.50;5074438;28;20032;-79
2022/04/11 05:30:06;;;;;;;12.93;6.82;;;;;;;3.69;100.00;100011.81;5074391;28;20107;-80
2022/04/11 05:32:35;;;;;;;9.30;5.80;;;;;;;3.84;100.00;100026.25;5074690;28;20529;-80
2022/04/11 05:35:01;;;;;;;12.80;5.80;;;;;;;3.85;100.00;100015.91;5056499;28;20484;-80
2022/04/11 05:37:26;;;;;;;8.70;5.50;;;;;;;3.85;100.00;100015.06;5074118;28;20101;-80
2022/04/11 05:39:52;;;;;;;15.13;5.90;;;;;;;3.98;100.00;100024.31;5056656;28;20032;-80
2022/04/11 05:42:17;;;;;;;11.18;5.95;;;;;;;3.96;100.00;100001.16;5056360;28;20033;-79
2022/04/11 05:44:42;;;;;;;9.95;4.78;;;;;;;4.06;100.00;99991.56;5074403;28;20455;-78
2022/04/11 05:47:08;;;;;;;9.73;5.55;;;;;;;4.26;100.00;100004.16;5056140;28;20399;-80
2022/04/11 05:49:33;;;;;;;6.35;4.82;;;;;;;4.40;100.00;100012.53;5074436;28;20107;-79
2022/04/11 05:51:59;;;;;;;7.88;5.13;;;;;;;4.66;100.00;100025.00;5056064;28;20153;-79
2022/04/11 05:54:24;;;;;;;10.10;5.60;;;;;;;4.93;100.00;100025.41;5074456;28;20027;-79
2022/04/11 05:56:50;;;;;;;10.27;5.90;;;;;;;5.14;100.00;100013.84;5056560;28;20441;-79
2022/04/11 05:59:15;;;;;;;9.75;5.25;;;;;;;5.39;100.00;100009.06;5073826;28;20135;-79
2022/04/11 06:01:41;;;;;;;9.63;5.07;;;;;;;5.70;100.00;100017.06;5074202;28;20035;-78
2022/04/11 06:04:06;;;;;;;9.55;4.35;;;;;;;5.89;100.00;99999.41;5073886;28;20500;-78
2022/04/11 06:06:32;;;;;;;13.02;5.05;;;;;;;6.33;100.00;100032.06;5073877;28;20034;-78
2022/04/11 06:08:57;;;;;;;9.48;5.10;;;;;;;6.38;100.00;100008.69;5073937;28;20039;-79
2022/04/11 06:11:22;;;;;;;10.95;5.47;;;;;;;6.32;100.00;100019.16;5073992;28;20086;-79
2022/04/11 06:13:48;;;;;;;9.48;5.35;;;;;;;6.11;100.00;100016.19;5074053;28;20360;-79
2022/04/11 06:16:13;;;;;;;10.40;5.15;;;;;;;5.90;100.00;100006.28;5074137;28;20059;-79
2022/04/11 06:18:39;;;;;;;9.65;4.60;;;;;;;5.82;100.00;100031.47;5055724;28;20024;-79
2022/04/11 06:21:05;;;;;;;14.07;5.10;;;;;;;5.79;100.00;100032.38;5056314;28;20024;-79
2022/04/11 06:23:30;;;;;;;11.18;5.68;;;;;;;5.83;100.00;100026.25;5073771;28;20041;-79
2022/04/11 06:25:56;;;;;;;12.32;5.65;;;;;;;5.87;100.00;100019.28;5073812;28;20031;-78
2022/04/11 06:28:21;;;;;;;13.55;5.18;;;;;;;6.12;100.00;100027.38;5073518;28;20036;-79
2022/04/11 06:30:46;;;;;;;12.23;5.93;;;;;;;6.58;99.77;100026.31;5073697;28;20040;-79
2022/04/11 06:33:12;;;;;;;11.70;5.22;;;;;;;6.92;97.99;100027.19;5073351;28;20032;-79
2022/04/11 06:35:37;;;;;;;13.25;5.45;;;;;;;7.19;96.45;100032.50;5055410;28;20021;-78
2022/04/11 06:38:03;;;;;;;8.52;4.75;;;;;;;7.48;95.40;100029.13;5072512;28;20028;-78
2022/04/11 06:40:28;;;;;;;8.90;5.22;;;;;;;8.14;94.10;100015.09;5055315;28;20046;-78
2022/04/11 06:42:54;;;;;;;7.75;3.67;;;;;;;9.66;90.49;100009.97;5073515;28;20456;-79
2022/04/11 06:45:19;;;;;;;8.82;4.22;;;;;;;11.17;83.58;100016.97;5073230;28;20149;-79
2022/04/11 06:47:47;;;;;;;8.88;4.13;;;;;;;13.12;75.78;99992.09;5073219;28;20102;-79
2022/04/11 06:50:13;;;;;;;8.90;4.43;;;;;;;13.64;73.47;100008.53;5073008;28;20032;-79
2022/04/11 06:52:38;;;;;;;9.07;4.40;;;;;;;13.92;71.17;100004.44;5051654;28;20056;-79
2022/04/11 06:55:05;;;;;;;9.07;4.15;;;;;;;14.10;69.24;100018.28;5053080;28;20025;-79
2022/04/11 06:57:30;;;;;;;9.85;4.25;;;;;;;15.07;64.71;100011.84;5051756;28;20021;-79
2022/04/11 06:59:55;;;;;;;10.25;4.18;;;;;;;15.01;62.05;100024.50;5053240;28;20028;-79
2022/04/11 07:02:21;;;;;;;11.00;4.10;;;;;;;15.57;60.33;99992.19;5052834;28;20068;-79
2022/04/11 07:04:46;;;;;;;6.72;3.85;;;;;;;17.97;54.03;99993.81;5051721;28;20029;-79
2022/04/11 07:07:12;;;;;;;7.20;3.65;;;;;;;21.81;42.27;100007.31;5052563;28;20469;-79
2022/04/11 07:09:37;;;;;;;7.63;3.00;;;;;;;25.05;33.24;99989.91;5055674;28;20370;-79
2022/04/11 07:12:03;;;;;;;5.22;2.95;;;;;;;27.92;27.14;99997.31;5071518;28;20113;-78
2022/04/11 07:14:29;;;;;;;6.35;2.90;;;;;;;30.18;23.15;100001.78;5072390;28;20059;-80
2022/04/11 07:16:54;;;;;;;6.18;3.00;;;;;;;31.45;20.80;100001.84;5072807;28;20039;-78
2022/04/11 07:19:20;;;;;;;3.95;2.38;;;;;;;32.59;19.85;99987.75;5071297;28;20437;-78
2022/04/11 07:21:46;;;;;;;7.65;2.60;;;;;;;33.95;17.80;100003.28;5071369;28;20415;-79
2022/04/11 07:24:12;;;;;;;5.60;3.03;;;;;;;34.39;17.19;100001.63;5072577;28;20032;-79
2022/04/11 07:26:37;;;;;;;4.35;2.10;;;;;;;34.81;16.03;99989.25;5072966;28;20067;-79
2022/04/11 07:29:03;;;;;;;5.82;2.80;;;;;;;35.39;15.36;99991.59;5072394;28;20305;-77
2022/04/11 07:31:29;;;;;;;6.88;3.22;;;;;;;35.74;14.97;100004.59;5072313;28;20562;-78
2022/04/11 07:33:55;;;;;;;4.88;2.13;;;;;;;35.55;14.54;100003.75;5072388;28;20380;-79
2022/04/11 07:36:20;;;;;;;4.72;2.08;;;;;;;35.24;14.96;99999.28;5072153;28;20028;-79
2022/04/11 07:38:45;;;;;;;4.88;2.42;;;;;;;34.18;14.85;99992.00;5072569;28;20029;-79
2022/04/11 07:41:11;;;;;;;5.72;2.63;;;;;;;33.45;15.60;99995.78;5072031;28;20060;-78
2022/04/11 07:43:36;;;;;;;7.65;2.92;;;;;;;30.07;17.50;99999.53;5072278;28;20032;-79
2022/04/11 07:46:04;;;;;;;5.15;2.67;;;;;;;28.93;18.95;100000.81;5072261;28;20083;-79
2022/04/11 07:48:29;;;;;;;5.03;2.03;;;;;;;30.93;17.35;100005.81;5071916;28;20031;-79
2022/04/11 07:50:55;;;;;;;4.47;1.98;;;;;;;31.90;16.61;99999.59;5072178;28;20025;-79
2022/04/11 07:53:20;;;;;;;7.70;3.70;;;;;;;29.16;17.80;99995.41;5087237;28;20541;-79
2022/04/11 07:55:45;;;;;;;3.33;2.00;;;;;;;26.13;20.22;99995.66;5092202;28;20035;-79
2022/04/11 07:58:12;;;;;;;5.28;2.28;;;;;;;23.49;22.19;100001.75;5074040;28;20028;-79
2022/04/11 08:00:37;;;;;;;3.55;1.92;;;;;;;20.98;25.19;100001.16;5074141;28;20544;-79
2022/04/11 08:03:03;;;;;;;6.10;2.50;;;;;;;20.12;27.57;100000.28;5092195;28;20024;-79
2022/04/11 08:05:29;;;;;;;6.50;2.30;;;;;;;19.85;27.73;100008.66;5073821;28;20032;-79
2022/04/11 08:07:54;;;;;;;6.28;3.53;;;;;;;18.49;29.14;99999.69;5092238;28;20024;-79
2022/04/11 08:10:23;;;;;;;4.78;2.88;;;;;;;17.14;31.76;100012.72;5091990;28;20039;-79
2022/04/11 08:12:56;;;;;;;11.07;5.10;;;;;;;16.26;33.52;100005.41;5092454;28;20054;-78
2022/04/11 08:15:22;;;;;;;12.30;6.03;;;;;;;15.52;35.09;100011.81;5073598;28;20081;-79
2022/04/11 08:17:48;;;;;;;8.27;3.60;;;;;;;15.02;36.10;100013.91;5092253;28;20031;-78
2022/04/11 08:20:14;;;;;;;8.05;4.93;;;;;;;14.81;36.72;100009.94;5092048;28;20051;-78
2022/04/11 08:22:39;;;;;;;10.23;3.67;;;;;;;14.50;36.47;100006.47;5084445;28;20032;-79
2022/04/11 08:25:05;;;;;;;4.93;3.42;;;;;;;14.60;37.03;100017.25;5053734;28;20090;-79
2022/04/11 08:27:31;;;;;;;5.32;2.60;;;;;;;14.51;36.36;100018.63;5053520;28;20086;-79
2022/04/11 08:29:56;;;;;;;6.45;3.35;;;;;;;14.37;37.09;100014.16;5071758;28;20505;-77
2022/04/11 08:32:21;;;;;;;4.85;2.55;;;;;;;14.33;37.59;100019.66;5071742;28;20028;-78
2022/04/11 08:34:47;;;;;;;9.85;5.55;;;;;;;13.62;35.77;100006.94;5072797;28;20024;-78
2022/04/11 08:37:12;;;;;;;9.85;3.75;;;;;;;12.87;38.08;100021.25;5063334;28;20490;-78
2022/04/11 08:39:38;;;;;;;4.35;1.83;;;;;;;12.37;39.48;100022.81;5081871;28;20029;-78
2022/04/11 08:42:04;;;;;;;6.82;2.75;;;;;;;12.09;40.55;100025.88;5091966;28;20558;-78
2022/04/11 08:44:32;;;;;;;5.78;2.47;;;;;;;11.88;41.56;100021.66;5091605;28;20024;-76
2022/04/11 08:47:02;;;;;;;3.20;2.00;;;;;;;11.72;41.26;100042.38;5091650;28;20044;-77
2022/04/11 08:49:31;;;;;;;5.35;2.13;;;;;;;11.71;42.40;100035.44;5091691;28;20049;-78
2022/04/11 08:51:57;;;;;;;3.80;2.15;;;;;;;11.94;41.65;100035.28;5091717;28;20048;-77
2022/04/11 08:54:22;;;;;;;3.78;2.10;;;;;;;11.84;41.00;100027.94;5091717;28;20065;-77
2022/04/11 08:56:48;;;;;;;5.30;2.13;;;;;;;11.60;41.19;100025.50;5091399;28;20031;-80
2022/04/11 08:59:14;;;;;;;5.45;1.90;;;;;;;11.40;41.54;100034.19;5064653;28;20472;-77
2022/04/11 09:01:39;;;;;;;3.90;1.92;;;;;;;11.09;41.93;100033.84;5083219;28;20016;-75
2022/04/11 09:04:05;;;;;;;4.05;2.03;;;;;;;10.86;43.08;100020.00;5086231;28;20024;-79
2022/04/11 09:06:34;;;;;;;2.83;1.90;;;;;;;10.90;43.46;100037.19;5072536;28;20028;-79
2022/04/11 09:08:59;;;;;;;4.78;2.42;;;;;;;10.83;43.68;100043.59;5077200;28;20028;-79
2022/04/11 09:11:36;;;;;;;5.75;3.53;;;;;;;10.94;44.04;100043.97;5077063;28;20028;-78
2022/04/11 09:14:04;;;;;;;3.47;2.30;;;;;;;11.23;43.54;100049.72;5077089;28;20020;-77
2022/04/11 09:16:43;;;;;;;5.65;3.15;;;;;;;11.49;42.88;100045.97;5095259;28;20032;-78
2022/04/11 09:19:28;;;;;;;7.82;3.47;;;;;;;11.53;42.45;100037.09;5095297;28;20483;-79
2022/04/11 09:21:56;;;;;;;5.10;2.97;;;;;;;11.56;42.95;100050.03;5077137;28;20066;-78
2022/04/11 09:24:24;;;;;;;5.68;2.30;;;;;;;11.52;42.93;100035.41;5095022;28;20467;-78
2022/04/11 09:26:54;;;;;;;5.28;2.20;;;;;;;11.42;42.68;100034.16;5095175;28;20490;-79
2022/04/11 09:29:20;;;;;;;5.07;2.38;;;;;;;11.32;42.93;100053.69;5095167;28;20107;-79
2022/04/11 09:31:45;;;;;;;3.30;2.13;;;;;;;11.09;43.83;100044.25;5094722;28;20115;-79
2022/04/11 09:34:27;;;;;;;5.90;2.80;;;;;;;10.94;44.40;100040.53;5094943;28;20035;-79
2022/04/11 09:36:56;;;;;;;5.57;2.40;;;;;;;10.86;44.56;100043.44;5094797;28;20028;-78
2022/04/11 09:39:23;;;;;;;14.75;4.30;;;;;;;10.73;45.13;100024.03;5076220;28;20028;-78
2022/04/11 09:41:50;;;;;;;5.32;2.30;;;;;;;10.74;44.42;100031.81;5094712;28;20043;-79
2022/04/11 09:44:22;;;;;;;4.28;1.92;;;;;;;10.84;43.82;100040.06;5094026;28;20039;-78
2022/04/11 09:46:49;;;;;;;4.07;2.30;;;;;;;10.89;42.96;100037.28;5076433;28;20169;-78
2022/04/11 09:49:15;;;;;;;5.38;3.38;;;;;;;10.83;43.22;100027.09;5094664;28;20028;-79
2022/04/11 09:52:05;;;;;;;8.90;2.75;;;;;;;10.78;43.14;100040.31;5093257;28;20043;-79
2022/04/11 09:54:31;;;;;;;4.07;2.70;;;;;;;10.71;43.69;100031.06;5094510;28;20023;-78
2022/04/11 09:56:59;;;;;;;7.95;5.05;;;;;;;10.68;43.63;100041.63;5094700;28;20077;-77
2022/04/11 09:59:24;;;;;;;9.25;4.25;;;;;;;10.80;43.44;100042.88;5094263;28;20429;-77
2022/04/11 10:01:51;;;;;;;4.22;2.70;;;;;;;10.89;42.06;100021.63;5094317;28;20088;-77
2022/04/11 10:04:21;;;;;;;6.15;3.45;;;;;;;11.14;42.07;100037.94;5094850;28;20038;-76
2022/04/11 10:06:48;;;;;;;7.00;3.92;;;;;;;11.09;41.46;100023.41;5094415;28;20036;-76
2022/04/11 10:09:15;;;;;;;6.25;3.88;;;;;;;10.95;41.89;100035.25;5094301;28;20145;-76
2022/04/11 10:11:44;;;;;;;7.22;3.83;;;;;;;10.77;42.91;100056.88;5093705;28;20475;-75
2022/04/11 10:14:23;;;;;;;6.05;3.22;;;;;;;10.34;44.70;100021.28;5093219;28;20029;-76
2022/04/11 10:16:49;;;;;;;6.63;2.88;;;;;;;10.21;46.67;100049.53;5093869;28;20070;-76
2022/04/11 10:19:15;;;;;;;4.28;2.33;;;;;;;9.97;47.50;100038.28;5094242;28;20055;-77
2022/04/11 10:21:43;;;;;;;4.05;2.80;;;;;;;9.82;48.05;100039.72;5075790;28;20124;-78
2022/04/11 10:24:19;;;;;;;5.13;2.45;;;;;;;9.66;48.45;100030.78;5094143;28;20031;-78
2022/04/11 10:26:53;;;;;;;6.40;2.60;;;;;;;9.65;48.73;100037.75;5094011;28;20032;-78
2022/04/11 10:29:32;;;;;;;5.97;3.22;;;;;;;9.72;48.68;100048.75;5094068;28;20020;-78
2022/04/11 10:32:24;;;;;;;7.40;3.20;;;;;;;9.98;48.23;100040.81;5094010;28;20492;-78
2022/04/11 10:35:01;;;;;;;9.63;3.22;;;;;;;10.18;46.73;100024.44;4992027;28;20431;-79
2022/04/11 10:37:31;;;;;;;8.25;3.75;;;;;;;10.44;45.86;100027.81;4991568;28;20050;-78
2022/04/11 10:40:15;;;;;;;7.05;2.95;;;;;;;10.68;45.31;100018.16;4991842;28;20506;-76
2022/04/11 10:43:05;;;;;;;6.53;2.38;;;;;;;11.02;44.75;100016.75;4991221;28;20042;-78
2022/04/11 10:45:38;;;;;;;4.55;2.20;;;;;;;11.43;44.74;100015.81;4990384;28;20117;-76
2022/04/11 10:48:04;;;;;;;2.63;1.77;;;;;;;11.47;44.03;99995.66;4991212;28;20162;-76
2022/04/11 10:50:34;;;;;;;3.30;1.83;;;;;;;11.55;42.78;100003.16;4990973;28;20109;-75
2022/04/11 10:53:11;;;;;;;7.40;2.08;;;;;;;11.58;42.96;99993.41;4991055;28;20057;-75
2022/04/11 10:56:07;;;;;;;5.20;1.83;;;;;;;11.90;41.88;99993.72;4991321;28;20034;-76
2022/04/11 10:58:47;;;;;;;3.65;2.10;;;;;;;12.23;41.90;99989.53;4991430;28;20042;-75
2022/04/11 11:01:13;;;;;;;5.80;2.03;;;;;;;12.32;40.98;99985.63;4991596;28;20173;-75
2022/04/11 11:03:40;;;;;;;3.38;1.60;;;;;;;12.39;40.72;99991.41;4991140;28;20129;-75
2022/04/11 11:06:20;;;;;;;2.10;1.90;;;;;;;12.40;40.09;99996.53;4975000;28;20030;-74
2022/04/11 11:08:45;;;;;;;2.45;1.60;;;;;;;12.25;39.10;99989.44;4990980;28;20130;-74
2022/04/11 11:11:21;;;;;;;2.40;1.70;;;;;;;12.07;38.61;99993.78;5017720;28;20028;-74
2022/04/11 11:13:48;;;;;;;6.68;2.10;;;;;;;11.67;39.22;99984.31;5072636;28;20033;-75
2022/04/11 11:16:14;;;;;;;3.38;1.77;;;;;;;11.42;40.40;100014.13;5072873;28;20044;-75
2022/04/11 11:18:46;;;;;;;3.85;1.88;;;;;;;11.26;41.09;100009.66;5072279;28;20428;-74
2022/04/11 11:21:12;;;;;;;4.30;2.25;;;;;;;11.08;41.35;99991.28;5072004;28;20025;-75
2022/04/11 11:23:38;;;;;;;5.20;2.80;;;;;;;11.00;42.06;100003.81;5071945;28;20031;-75
2022/04/11 11:26:11;;;;;;;4.70;2.58;;;;;;;10.87;42.37;99992.19;5072754;28;20021;-75